Terminal Aerodrome Forecast
Issued by NWS Mobile, AL

Current Version | Previous Version | Text Only | Print | Product List | Glossary On
Versions: 1 2 3 4 5 6 7 8 9 10 11 12 13 14 15 16 17
000
FTUS44 KMOB 162300
TAFPNS
TAF
KPNS 162338Z 1700/1724 17006KT P6SM SCT200
     FM170800 06008KT P6SM SCT015 BKN200
     FM171000 07012KT P6SM BKN015 BKN200
     FM171300 08010G16KT P6SM BKN007 OVC015
     FM171600 09012G20KT P6SM SCT015 BKN025 OVC200=

USA.gov is the U.S. government's official web portal to all federal, state and local government web resources and services.